createdAt,value
2018-06-12T04:09:48.464Z,84.94
2018-06-12T04:10:13.943Z,84.75
2018-06-12T04:10:39.636Z,85.32
2018-06-12T04:11:05.400Z,85.13
2018-06-12T04:11:30.637Z,85.32
2018-06-12T04:11:56.262Z,84.75
2018-06-12T04:12:21.732Z,84.75
2018-06-12T04:12:47.590Z,84.94
2018-06-12T04:13:13.126Z,85.22
2018-06-12T04:13:38.691Z,85.13
2018-06-12T04:14:04.145Z,84.98
2018-06-12T04:14:29.744Z,84.79
2018-06-12T04:14:55.194Z,85.08
2018-06-12T04:15:20.746Z,84.41
2018-06-12T04:15:46.294Z,85.08
2018-06-12T04:16:11.737Z,84.84
2018-06-12T04:16:37.292Z,84.84
2018-06-12T04:17:02.788Z,84.65
2018-06-12T04:17:28.279Z,84.84
2018-06-12T04:17:53.708Z,84.88
2018-06-12T04:18:19.319Z,84.84
2018-06-12T04:18:45.125Z,84.5
2018-06-12T04:19:10.903Z,84.88
2018-06-12T04:19:37.420Z,84.59
2018-06-12T04:20:03.213Z,84.79
2018-06-12T04:20:28.814Z,84.22
2018-06-12T04:20:54.429Z,84.02
2018-06-12T04:21:20.025Z,84.12
2018-06-12T04:21:45.648Z,84.12
2018-06-12T04:22:11.341Z,84.36
2018-06-12T04:22:36.832Z,83.64
2018-06-12T04:23:02.262Z,83.64
2018-06-12T04:23:27.742Z,83.93
2018-06-12T04:23:53.324Z,84.02
2018-06-12T04:24:18.937Z,84.31
2018-06-12T04:24:44.584Z,83.93
2018-06-12T04:25:10.030Z,83.64
2018-06-12T04:25:35.527Z,83.6
2018-06-12T04:26:01.219Z,83.89
2018-06-12T04:26:26.872Z,83.69
2018-06-12T04:26:52.626Z,83.6
2018-06-12T04:27:18.297Z,83.6
2018-06-12T04:27:43.854Z,83.93
2018-06-12T04:28:09.532Z,83.73
2018-06-12T04:28:35.106Z,83.69
2018-06-12T04:29:00.841Z,84.31
2018-06-12T04:29:26.465Z,83.93
2018-06-12T04:29:51.924Z,83.54
2018-06-12T04:30:17.650Z,83.6
2018-06-12T04:30:43.039Z,83.54
2018-06-12T04:31:08.626Z,83.54
2018-06-12T04:31:34.282Z,84.31
2018-06-12T04:31:59.819Z,84.31
2018-06-12T04:32:25.228Z,83.73
2018-06-12T04:32:50.928Z,83.69
2018-06-12T04:33:16.420Z,83.6
2018-06-12T04:33:42.038Z,83.79
2018-06-12T04:34:07.402Z,83.73
2018-06-12T04:34:32.993Z,84.12
2018-06-12T04:34:59.211Z,84.17
2018-06-12T04:35:24.143Z,84.22
2018-06-12T04:35:50.230Z,83.83
2018-06-12T04:36:16.145Z,83.83
2018-06-12T04:36:41.559Z,84.12
2018-06-12T04:37:07.027Z,84.02
2018-06-12T04:37:32.549Z,83.83
2018-06-12T04:37:58.096Z,83.73
2018-06-12T04:38:23.613Z,83.45
2018-06-12T04:38:49.149Z,83.64
2018-06-12T04:39:14.623Z,83.54
2018-06-12T04:39:40.311Z,83.83
2018-06-12T04:40:05.730Z,83.93
2018-06-12T04:40:31.227Z,83.64
2018-06-12T04:40:56.742Z,83.73
2018-06-12T04:41:22.222Z,83.83
2018-06-12T04:41:47.756Z,83.73
2018-06-12T04:42:13.307Z,83.26
2018-06-12T04:42:38.917Z,83.73
2018-06-12T04:43:04.363Z,83.45
2018-06-12T04:43:29.963Z,83.26
2018-06-12T04:43:55.461Z,83.36
2018-06-12T04:44:21.016Z,83.16
2018-06-12T04:44:46.590Z,83.16
2018-06-12T04:45:12.018Z,83.36
2018-06-12T04:45:37.550Z,83.36
2018-06-12T04:46:03.108Z,83.93
2018-06-12T04:46:28.615Z,83.93
2018-06-12T04:46:54.103Z,83.45
2018-06-12T04:47:19.579Z,83.83
2018-06-12T04:47:45.219Z,83.83
2018-06-12T04:48:10.712Z,83.64
2018-06-12T04:48:36.278Z,83.54
2018-06-12T04:49:01.814Z,83.64
2018-06-12T04:49:27.284Z,83.83
2018-06-12T04:49:52.819Z,83.64
2018-06-12T04:50:18.323Z,83.93
2018-06-12T04:50:43.799Z,83.83
2018-06-12T04:51:09.282Z,83.26
2018-06-12T04:51:34.866Z,83.16
2018-06-12T04:52:00.482Z,83.36
2018-06-12T04:52:25.958Z,82.87
2018-06-12T04:52:51.413Z,82.78
2018-06-12T04:53:16.893Z,83.16
2018-06-12T04:53:42.382Z,83.16
2018-06-12T04:54:08.068Z,82.87
2018-06-12T04:54:33.498Z,82.78
2018-06-12T04:54:59.048Z,82.97
2018-06-12T04:55:24.848Z,82.78
2018-06-12T04:55:50.210Z,82.97
2018-06-12T04:56:15.706Z,82.4
2018-06-12T04:56:41.313Z,82.87
2018-06-12T04:57:06.780Z,82.59
2018-06-12T04:57:32.212Z,82.68
2018-06-12T04:57:57.907Z,82.68
2018-06-12T04:58:23.587Z,82.01
2018-06-12T04:58:49.245Z,82.3
2018-06-12T04:59:14.667Z,81.73
2018-06-12T04:59:40.501Z,81.82
2018-06-12T05:00:06.023Z,81.44
2018-06-12T05:00:31.492Z,81.44
2018-06-12T05:00:57.063Z,81.73
2018-06-12T05:01:22.438Z,81.92
2018-06-12T05:01:47.996Z,81.73
2018-06-12T05:02:13.493Z,81.44
2018-06-12T05:02:39.058Z,81.44
2018-06-12T05:03:04.512Z,81.44
2018-06-12T05:03:30.009Z,81.54
2018-06-12T05:03:55.588Z,81.34
2018-06-12T05:04:21.048Z,81.34
2018-06-12T05:04:46.547Z,81.63
2018-06-12T05:05:12.068Z,81.54
2018-06-12T05:05:37.796Z,81.54
2018-06-12T05:06:03.329Z,81.54
2018-06-12T05:06:28.796Z,81.05
2018-06-12T05:06:54.260Z,81.05
2018-06-12T05:07:19.873Z,81.44
2018-06-12T05:07:45.257Z,81.54
2018-06-12T05:08:10.844Z,81.15
2018-06-12T05:08:36.233Z,81.92
2018-06-12T05:09:01.816Z,81.92
2018-06-12T05:09:27.324Z,81.82
2018-06-12T05:09:52.791Z,81.92
2018-06-12T05:10:18.428Z,81.63
2018-06-12T05:10:43.855Z,81.63
2018-06-12T05:11:09.315Z,81.05
2018-06-12T05:11:34.816Z,80.67
2018-06-12T05:12:00.350Z,80.87
2018-06-12T05:12:26.225Z,80.87
2018-06-12T05:12:51.520Z,81.15
2018-06-12T05:13:16.917Z,81.05
2018-06-12T05:13:42.425Z,81.05
2018-06-12T05:14:07.932Z,80.96
2018-06-12T05:14:33.504Z,80.77
2018-06-12T05:14:58.951Z,80.87
2018-06-12T05:15:24.577Z,80.38
2018-06-12T05:15:50.006Z,80.58
2018-06-12T05:16:15.558Z,81.05
2018-06-12T05:16:41.133Z,80.96
2018-06-12T05:17:06.804Z,81.15
2018-06-12T05:17:32.323Z,81.15
2018-06-12T05:17:57.767Z,80.96
2018-06-12T05:18:23.265Z,80.87
2018-06-12T05:19:26.896Z,81.15
2018-06-12T05:19:52.411Z,80.87
2018-06-12T05:20:17.868Z,81.25
2018-06-12T05:20:43.377Z,81.05
2018-06-12T05:21:08.899Z,80.96
2018-06-12T05:21:34.405Z,80.87
2018-06-12T05:21:59.853Z,80.87
2018-06-12T05:22:25.347Z,80.87
2018-06-12T05:22:50.831Z,80.96
2018-06-12T05:23:16.301Z,80.87
2018-06-12T05:23:41.759Z,80.87
2018-06-12T05:24:07.221Z,80.67
2018-06-12T05:24:32.744Z,81.05
2018-06-12T05:24:58.219Z,80.77
2018-06-12T05:25:23.733Z,81.05
2018-06-12T05:25:49.238Z,81.05
2018-06-12T05:26:14.725Z,81.05
2018-06-12T05:26:40.230Z,81.54
2018-06-12T05:27:05.681Z,81.34
2018-06-12T05:27:31.225Z,80.87
2018-06-12T05:27:56.712Z,80.67
2018-06-12T05:28:22.187Z,80.96
2018-06-12T05:28:47.628Z,81.15
2018-06-12T05:29:13.179Z,80.87
2018-06-12T05:29:38.611Z,80.96
2018-06-12T05:30:04.179Z,80.87
2018-06-12T05:30:29.611Z,80.67
2018-06-12T05:30:55.266Z,80.67
2018-06-12T05:31:20.668Z,81.25
2018-06-12T05:31:46.242Z,81.57
2018-06-12T05:32:11.862Z,81.54
2018-06-12T05:32:37.479Z,81.57
2018-06-12T05:33:02.906Z,81.48
2018-06-12T05:33:28.306Z,81
2018-06-12T05:33:53.836Z,80.52
2018-06-12T05:34:19.301Z,80.24
2018-06-12T05:34:44.860Z,80.71
2018-06-12T05:35:10.225Z,80.52
2018-06-12T05:35:35.794Z,80.71
2018-06-12T05:36:01.431Z,80.62
2018-06-12T05:36:27.929Z,79.85
2018-06-12T05:36:53.514Z,79.95
2018-06-12T05:37:18.928Z,80.14
2018-06-12T05:37:44.534Z,80.24
2018-06-12T05:38:10.078Z,80.52
2018-06-12T05:38:35.528Z,80.14
2018-06-12T05:39:01.033Z,80.43
2018-06-12T05:39:26.546Z,80.52
2018-06-12T05:39:52.085Z,80.04
2018-06-12T05:40:17.602Z,80.04
2018-06-12T05:40:43.110Z,80.52
2018-06-12T05:41:08.718Z,80.04
2018-06-12T05:41:34.175Z,79.57
2018-06-12T05:41:59.639Z,80.33
2018-06-12T05:42:25.175Z,79.95
2018-06-12T05:42:50.858Z,80.43
2018-06-12T05:43:16.237Z,80.33
2018-06-12T05:43:41.701Z,80.33
2018-06-12T05:44:07.207Z,80.14
2018-06-12T05:44:32.733Z,80.33
2018-06-12T05:44:58.352Z,80.14
2018-06-12T05:45:23.967Z,79.75
2018-06-12T05:45:49.480Z,79.85
2018-06-12T05:46:15.051Z,79.85
2018-06-12T05:46:40.763Z,79.66
2018-06-12T05:47:06.414Z,78.89
2018-06-12T05:47:31.805Z,79.18
2018-06-12T05:47:57.451Z,79.18
2018-06-12T05:48:22.832Z,79.57
2018-06-12T05:48:48.340Z,79.66
2018-06-12T05:49:13.823Z,79.57
2018-06-12T05:49:39.365Z,79.37
2018-06-12T05:50:04.857Z,79.66
2018-06-12T05:50:30.452Z,79.47
2018-06-12T05:50:55.851Z,79.37
2018-06-12T05:51:21.470Z,79.95
2018-06-12T05:51:46.947Z,79.85
2018-06-12T05:52:12.427Z,80.04
2018-06-12T05:52:38.089Z,80.14
2018-06-12T05:53:03.375Z,80.33
2018-06-12T05:53:29.039Z,80.14
2018-06-12T05:53:54.619Z,80.27
2018-06-12T05:54:20.059Z,80.76
2018-06-12T05:54:45.527Z,80.08
2018-06-12T05:55:11.102Z,80.47
2018-06-12T05:55:36.568Z,79.99
2018-06-12T05:56:02.031Z,79.8
2018-06-12T05:56:27.488Z,79.7
2018-06-12T05:56:52.919Z,79.41
2018-06-12T05:57:18.581Z,79.6
2018-06-12T05:57:44.145Z,79.6
2018-06-12T05:58:09.721Z,79.6
2018-06-12T05:58:35.216Z,78.93
2018-06-12T05:59:00.713Z,79.6
2018-06-12T05:59:26.276Z,79.8
2018-06-12T05:59:52.265Z,79.6
2018-06-12T06:00:20.522Z,79.7
2018-06-12T06:00:46.783Z,79.22
2018-06-12T06:01:12.331Z,79.8
2018-06-12T06:01:38.145Z,79.41
2018-06-12T06:02:03.698Z,79.41
2018-06-12T06:02:29.292Z,79.41
2018-06-12T06:02:54.865Z,79.22
2018-06-12T06:03:20.532Z,79.22
2018-06-12T06:03:46.097Z,78.74
2018-06-12T06:04:11.700Z,78.64
2018-06-12T06:04:37.275Z,78.84
2018-06-12T06:05:02.729Z,78.45
2018-06-12T06:05:28.224Z,78.74
2018-06-12T06:05:53.881Z,78.55
2018-06-12T06:06:19.400Z,78.55
2018-06-12T06:06:44.853Z,78.45
2018-06-12T06:07:10.369Z,78.45
2018-06-12T06:07:35.877Z,78.84
2018-06-12T06:08:01.362Z,78.55
2018-06-12T06:08:26.843Z,78.64
2018-06-12T06:08:52.357Z,78.55
2018-06-12T06:09:17.790Z,78.55
2018-06-12T06:09:43.332Z,78.55
2018-06-12T06:10:08.856Z,77.97
2018-06-12T06:10:34.375Z,77.5
2018-06-12T06:10:59.871Z,77.5
2018-06-12T06:11:25.359Z,77.31
2018-06-12T06:11:50.854Z,77.4
2018-06-12T06:12:16.345Z,77.69
2018-06-12T06:13:20.018Z,76.82
2018-06-12T06:13:45.513Z,77.59
2018-06-12T06:14:10.907Z,76.92
2018-06-12T06:14:36.369Z,76.92
2018-06-12T06:15:01.792Z,77.02
2018-06-12T06:15:27.259Z,77.31
2018-06-12T06:15:52.719Z,77.02
2018-06-12T06:16:18.227Z,77.4
2018-06-12T06:16:44.158Z,77.5
2018-06-12T06:17:09.836Z,77.21
2018-06-12T06:17:35.363Z,77.21
2018-06-12T06:18:00.860Z,77.21
2018-06-12T06:18:26.413Z,77.02
2018-06-12T06:18:51.955Z,77.4
2018-06-12T06:19:17.378Z,77.31
2018-06-12T06:19:42.851Z,77.59
2018-06-12T06:20:52.576Z,77.11
2018-06-12T06:21:18.055Z,77.5
2018-06-12T06:21:43.607Z,77.21
2018-06-12T06:22:09.065Z,77.31
2018-06-12T06:22:34.714Z,77.5
2018-06-12T06:23:00.152Z,77.21
2018-06-12T06:23:25.574Z,77.21
2018-06-12T06:23:51.092Z,77.15
2018-06-12T06:24:16.545Z,77.5
2018-06-12T06:24:42.039Z,77.11
2018-06-12T06:25:07.672Z,77.21
2018-06-12T06:25:33.167Z,77.5
2018-06-12T06:25:58.771Z,77.21
2018-06-12T06:26:24.373Z,76.64
2018-06-12T06:26:49.973Z,77.06
2018-06-12T06:27:15.483Z,76.48
2018-06-12T06:27:41.024Z,76.29
2018-06-12T06:28:06.504Z,76.57
2018-06-12T06:28:31.966Z,76.67
2018-06-12T06:28:57.530Z,76.1
2018-06-12T06:29:22.923Z,76.57
2018-06-12T06:29:48.744Z,77.06
2018-06-12T06:30:14.189Z,76.39
2018-06-12T06:30:39.654Z,77.06
2018-06-12T06:31:05.198Z,77.25
2018-06-12T06:31:30.651Z,77.15
2018-06-12T06:31:56.153Z,77.15
2018-06-12T06:32:21.677Z,77.34
2018-06-12T06:32:47.190Z,77.25
2018-06-12T06:33:12.834Z,77.34
2018-06-12T06:33:38.338Z,77.25
2018-06-12T06:34:03.922Z,76.96
2018-06-12T06:34:29.349Z,77.25
2018-06-12T06:34:54.839Z,77.34
2018-06-12T06:35:20.293Z,77.06
2018-06-12T06:35:45.773Z,77.34
2018-06-12T06:36:11.431Z,77.44
2018-06-12T06:36:36.792Z,77.06
2018-06-12T06:37:02.399Z,77.34
2018-06-12T06:37:27.900Z,77.44
2018-06-12T06:37:53.410Z,77.06
2018-06-12T06:38:18.942Z,76.29
2018-06-12T06:38:44.540Z,76.67
2018-06-12T06:39:10.019Z,76
2018-06-12T06:39:35.508Z,76.23
2018-06-12T06:40:00.939Z,76.77
2018-06-12T06:40:26.430Z,77.06
2018-06-12T06:40:51.969Z,76.67
2018-06-12T06:41:17.461Z,77.19
2018-06-12T06:41:43.074Z,77.15
2018-06-12T06:42:08.625Z,77.19
2018-06-12T06:42:34.091Z,77.06
2018-06-12T06:42:59.615Z,77.34
2018-06-12T06:43:25.135Z,77
2018-06-12T06:43:50.608Z,77.19
2018-06-12T06:44:16.260Z,77
2018-06-12T06:44:41.944Z,76.71
2018-06-12T06:45:07.386Z,77.09
2018-06-12T06:45:32.736Z,76.52
2018-06-12T06:45:58.289Z,76.19
2018-06-12T06:46:23.910Z,76.19
2018-06-12T06:46:49.273Z,75.52
2018-06-12T06:47:14.795Z,75.04
2018-06-12T06:47:40.663Z,75.14
2018-06-12T06:48:06.209Z,74.89
2018-06-12T06:48:31.672Z,75.08
2018-06-12T06:48:57.134Z,74.98
2018-06-12T06:49:22.654Z,75.9
2018-06-12T06:49:48.176Z,75.81
2018-06-12T06:50:13.635Z,75.08
2018-06-12T06:50:39.187Z,75.27
2018-06-12T06:51:04.712Z,75.33
2018-06-12T06:51:30.074Z,75.46
2018-06-12T06:51:55.488Z,75.37
2018-06-12T06:52:20.989Z,75.08
2018-06-12T06:52:46.499Z,75.43
2018-06-12T06:53:11.914Z,75.71
2018-06-12T06:53:37.460Z,75.46
2018-06-12T06:54:02.858Z,75.46
2018-06-12T06:54:28.389Z,75.46
2018-06-12T06:54:53.968Z,75.37
2018-06-12T06:55:19.418Z,75.65
2018-06-12T06:55:44.875Z,76.14
2018-06-12T06:56:10.362Z,75.85
2018-06-12T06:56:35.816Z,75.08
2018-06-12T06:57:01.345Z,75.27
2018-06-12T06:57:26.819Z,75.46
2018-06-12T06:57:52.241Z,75.08
2018-06-12T06:58:17.785Z,75.08
2018-06-12T06:58:43.247Z,75.08
2018-06-12T06:59:08.692Z,74.89
2018-06-12T06:59:34.236Z,74.69
2018-06-12T06:59:59.736Z,74.31
2018-06-12T07:00:25.225Z,74.51
2018-06-12T07:00:50.744Z,74.6
2018-06-12T07:01:16.189Z,74.79
2018-06-12T07:01:41.755Z,74.79
2018-06-12T07:02:07.190Z,74.69
2018-06-12T07:02:32.698Z,74.31
2018-06-12T07:02:58.186Z,73.93
2018-06-12T07:03:23.706Z,73.83
2018-06-12T07:03:49.207Z,73.55
2018-06-12T07:04:14.666Z,73.35
2018-06-12T07:04:40.203Z,73.45
2018-06-12T07:05:05.620Z,73.45
2018-06-12T07:05:31.118Z,73.35
2018-06-12T07:05:56.569Z,73.77
2018-06-12T07:06:22.084Z,73.3
2018-06-12T07:06:47.496Z,72.91
2018-06-12T07:07:12.963Z,73.3
2018-06-12T07:07:38.456Z,72.43
2018-06-12T07:08:03.944Z,72.43
2018-06-12T07:08:29.445Z,72.81
2018-06-12T07:08:54.884Z,72.53
2018-06-12T07:09:20.514Z,72.33
2018-06-12T07:09:46.042Z,72.63
2018-06-12T07:10:11.569Z,72.72
2018-06-12T07:10:37.229Z,72.53
2018-06-12T07:11:02.714Z,72.63
2018-06-12T07:11:29.193Z,72.24
2018-06-12T07:11:54.223Z,72.05
2018-06-12T07:12:19.692Z,71.37
2018-06-12T07:12:45.214Z,71.37
2018-06-12T07:13:10.959Z,71.09
2018-06-12T07:13:36.528Z,71.19
2018-06-12T07:14:02.112Z,70.99
2018-06-12T07:14:27.570Z,71.09
2018-06-12T07:14:53.231Z,71.09
2018-06-12T07:15:18.683Z,70.99
2018-06-12T07:15:44.122Z,71.86
2018-06-12T07:16:09.595Z,71.86
2018-06-12T07:16:35.230Z,71.76
2018-06-12T07:17:00.695Z,71.95
2018-06-12T07:17:26.170Z,71.19
2018-06-12T07:17:51.732Z,71.95
2018-06-12T07:18:17.247Z,71.76
2018-06-12T07:18:42.767Z,72.05
2018-06-12T07:19:08.202Z,71.76
2018-06-12T07:19:33.728Z,72.05
2018-06-12T07:19:59.248Z,72.24
2018-06-12T07:20:24.707Z,71.76
2018-06-12T07:20:50.220Z,72.47
2018-06-12T07:21:15.764Z,71.89
2018-06-12T07:21:41.351Z,72.05
2018-06-12T07:22:06.814Z,71.7
2018-06-12T07:22:32.334Z,71.41
2018-06-12T07:22:57.859Z,71.31
2018-06-12T07:23:23.402Z,71.12
2018-06-12T07:23:48.905Z,70.64
2018-06-12T07:24:14.453Z,70.64
2018-06-12T07:24:39.945Z,70.64
2018-06-12T07:25:05.436Z,70.64
2018-06-12T07:25:30.945Z,70.55
2018-06-12T07:25:56.513Z,70.64
2018-06-12T07:26:22.020Z,70.74
2018-06-12T07:26:47.482Z,70.74
2018-06-12T07:27:12.973Z,70.84
2018-06-12T07:27:38.521Z,70.74
2018-06-12T07:28:04.089Z,70.17
2018-06-12T07:28:29.523Z,70.26
2018-06-12T07:28:55.066Z,70.36
2018-06-12T07:29:20.580Z,70.84
2018-06-12T07:29:46.134Z,70.64
2018-06-12T07:30:11.807Z,71.31
2018-06-12T07:30:37.068Z,71.51
2018-06-12T07:31:02.616Z,71.51
2018-06-12T07:31:28.607Z,71.12
2018-06-12T07:31:54.055Z,71.31
2018-06-12T07:32:19.613Z,71.22
2018-06-12T07:32:45.103Z,71.55
2018-06-12T07:33:10.590Z,71.8
2018-06-12T07:33:36.130Z,71.45
2018-06-12T07:34:01.604Z,71.35
2018-06-12T07:34:27.212Z,71.16
2018-06-12T07:34:52.727Z,70.68
2018-06-12T07:35:18.235Z,70.87
2018-06-12T07:35:43.768Z,70.68
2018-06-12T07:36:09.289Z,70.58
2018-06-12T07:36:34.875Z,70.84
2018-06-12T07:37:00.534Z,70.55
2018-06-12T07:37:25.952Z,70.64
2018-06-12T07:37:51.820Z,69.87
2018-06-12T07:38:17.206Z,69.87
2018-06-12T07:38:42.674Z,69.97
2018-06-12T07:39:08.242Z,70.17
2018-06-12T07:39:33.825Z,70.55
2018-06-12T07:39:59.282Z,71.12
2018-06-12T07:40:24.755Z,70.84
2018-06-12T07:40:50.569Z,70.74
2018-06-12T07:41:16.203Z,70.74
2018-06-12T07:41:41.682Z,70.84
2018-06-12T07:42:07.195Z,71.03
2018-06-12T07:42:32.692Z,70.93
2018-06-12T07:42:58.259Z,70.93
2018-06-12T07:43:24.016Z,70.64
2018-06-12T07:43:49.427Z,71.31
2018-06-12T07:44:15.129Z,71.22
2018-06-12T07:44:41.277Z,71.19
2018-06-12T07:45:07.079Z,71.19
2018-06-12T07:45:32.617Z,71.31
2018-06-12T07:45:58.099Z,71.37
2018-06-12T07:46:23.597Z,71.09
2018-06-12T07:46:49.183Z,71.47
2018-06-12T07:47:14.697Z,71.19
2018-06-12T07:47:40.244Z,71.19
2018-06-12T07:48:05.694Z,71.19
2018-06-12T07:48:31.280Z,71.47
2018-06-12T07:48:56.806Z,71.19
2018-06-12T07:49:22.306Z,71.19
2018-06-12T07:49:47.985Z,71.28
2018-06-12T07:50:13.586Z,70.9
2018-06-12T07:50:39.031Z,71.37
2018-06-12T07:51:04.541Z,71.28
2018-06-12T07:51:30.134Z,71.37
2018-06-12T07:51:55.684Z,70.99
2018-06-12T07:52:21.283Z,71.09
2018-06-12T07:52:46.894Z,71.19
2018-06-12T07:53:12.370Z,71.09
2018-06-12T07:53:37.853Z,71.28
2018-06-12T07:54:03.596Z,71.12
2018-06-12T07:54:29.116Z,70.99
2018-06-12T07:54:54.580Z,71.09
2018-06-12T07:55:20.161Z,71.03
2018-06-12T07:55:45.659Z,71.03
2018-06-12T07:56:11.103Z,71.03
2018-06-12T07:56:36.620Z,71.03
2018-06-12T07:57:02.145Z,71.31
2018-06-12T07:57:27.755Z,70.64
2018-06-12T07:57:53.213Z,70.74
2018-06-12T07:58:18.762Z,70.45
2018-06-12T07:58:44.259Z,70.45
2018-06-12T07:59:09.787Z,70.55
2018-06-12T07:59:35.501Z,70.84
2018-06-12T08:00:01.057Z,70.74
2018-06-12T08:00:26.796Z,70.26
2018-06-12T08:00:52.208Z,69.59
2018-06-12T08:01:17.811Z,69.2
2018-06-12T08:01:43.351Z,68.91
2018-06-12T08:02:08.826Z,68.91
2018-06-12T08:02:34.682Z,69.59
2018-06-12T08:03:00.040Z,69.68
2018-06-12T08:03:25.555Z,68.82
2018-06-12T08:03:51.065Z,68.53
2018-06-12T08:04:16.545Z,68.44
2018-06-12T08:04:42.153Z,68.15
2018-06-12T08:05:07.954Z,68.73
2018-06-12T08:05:33.656Z,68.85
2018-06-12T08:05:59.108Z,68.95
2018-06-12T08:06:25.712Z,68.57
2018-06-12T08:06:50.919Z,68.85
2018-06-12T08:07:16.363Z,67.99
2018-06-12T08:07:42.017Z,68.57
2018-06-12T08:08:07.752Z,67.51
2018-06-12T08:08:33.929Z,67.51
2018-06-12T08:08:59.452Z,67.32
2018-06-12T08:09:24.968Z,67.22
2018-06-12T08:09:50.715Z,67.32
2018-06-12T08:10:16.226Z,67.03
2018-06-12T08:10:41.956Z,67.32
2018-06-12T08:11:07.639Z,67.51
2018-06-12T08:11:33.799Z,67.03
2018-06-12T08:11:59.569Z,67.8
2018-06-12T08:12:25.045Z,67.7
2018-06-12T08:12:50.932Z,67.61
2018-06-12T08:13:17.243Z,67.41
2018-06-12T08:13:43.777Z,67.32
2018-06-12T08:14:09.250Z,67.13
2018-06-12T08:14:35.293Z,67.51
2018-06-12T08:15:01.142Z,67.61
2018-06-12T08:15:27.081Z,67.8
2018-06-12T08:15:53.248Z,67.8
2018-06-12T08:16:18.779Z,67.61
2018-06-12T08:16:44.486Z,67.51
2018-06-12T08:17:10.233Z,67.61
2018-06-12T08:17:35.937Z,67.51
2018-06-12T08:18:02.051Z,67.7
2018-06-12T08:18:27.612Z,66.84
2018-06-12T08:18:53.535Z,66.64
2018-06-12T08:19:19.483Z,66.84
2018-06-12T08:19:45.544Z,66.84
2018-06-12T08:20:11.343Z,67.25
2018-06-12T08:20:36.875Z,66.74
2018-06-12T08:21:02.540Z,66.77
2018-06-12T08:21:28.517Z,66.2
2018-06-12T08:21:53.950Z,66
2018-06-12T08:22:19.538Z,64.85
2018-06-12T08:22:45.409Z,64.37
2018-06-12T08:23:11.004Z,64.95
2018-06-12T08:23:36.642Z,64.37
2018-06-12T08:24:02.186Z,64.56
2018-06-12T08:24:28.051Z,64.37
2018-06-12T08:24:53.621Z,64.56
2018-06-12T08:25:19.588Z,64.56
2018-06-12T08:25:45.387Z,65.05
2018-06-12T08:26:11.000Z,65.05
2018-06-12T08:26:36.910Z,64.85
2018-06-12T08:27:02.441Z,64.95
2018-06-12T08:27:28.081Z,65.05
2018-06-12T08:27:54.261Z,65.72
2018-06-12T08:28:20.453Z,65.53
2018-06-12T08:28:46.980Z,65.81
2018-06-12T08:29:12.850Z,65.62
2018-06-12T08:29:38.649Z,65.14
2018-06-12T08:30:04.139Z,64.85
2018-06-12T08:30:30.783Z,65.14
2018-06-12T08:30:56.127Z,64.66
2018-06-12T08:31:21.604Z,64.47
2018-06-12T08:31:47.327Z,64.66
2018-06-12T08:32:13.243Z,64.56
2018-06-12T08:32:38.853Z,64.18
2018-06-12T08:33:05.141Z,65.43
2018-06-12T08:33:30.733Z,64.95
2018-06-12T08:33:56.831Z,64.85
2018-06-12T08:34:22.261Z,64.85
2018-06-12T08:34:47.967Z,64.95
2018-06-12T08:35:13.478Z,65.72
2018-06-12T08:35:38.994Z,65.53
2018-06-12T08:36:04.380Z,65.53
2018-06-12T08:36:29.882Z,65.43
2018-06-12T08:36:55.344Z,65.05
2018-06-12T08:37:20.839Z,65.05
2018-06-12T08:37:46.279Z,64.09
2018-06-12T08:38:12.060Z,64.37
2018-06-12T08:38:38.064Z,64.37
2018-06-12T08:39:03.731Z,64.47
2018-06-12T08:39:29.317Z,64.37
2018-06-12T08:39:54.973Z,64.28
2018-06-12T08:40:20.881Z,64.47
2018-06-12T08:40:46.723Z,65.23
2018-06-12T08:41:12.576Z,65.05
2018-06-12T08:41:38.076Z,65.33
2018-06-12T08:42:03.698Z,66.1
2018-06-12T08:42:29.805Z,65.91
2018-06-12T08:42:55.553Z,66.49
2018-06-12T08:43:21.088Z,66.2
2018-06-12T08:43:46.693Z,65.72
2018-06-12T08:44:12.300Z,66
2018-06-12T08:44:38.492Z,66.1
2018-06-12T08:45:04.511Z,65.91
2018-06-12T08:45:29.829Z,65.33
2018-06-12T08:45:55.556Z,65.66
2018-06-12T08:46:21.121Z,65.56
2018-06-12T08:46:46.789Z,66.52
2018-06-12T08:47:12.336Z,66.71
2018-06-12T08:47:38.214Z,66.04
2018-06-12T08:48:03.683Z,65.08
2018-06-12T08:48:29.203Z,64.5
2018-06-12T08:48:54.711Z,64.79
2018-06-12T08:49:20.494Z,64.4
2018-06-12T08:49:46.030Z,64.4
2018-06-12T08:50:11.513Z,63.92
2018-06-12T08:50:36.947Z,64.31
2018-06-12T08:51:02.533Z,64.22
2018-06-12T08:51:27.937Z,63.92
2018-06-12T08:51:53.592Z,63.73
2018-06-12T08:52:19.274Z,64.22
2018-06-12T08:52:44.800Z,64.02
2018-06-12T08:53:10.290Z,64.4
2018-06-12T08:53:36.094Z,64.12
2018-06-12T08:54:01.688Z,64.69
2018-06-12T08:54:27.212Z,65.08
2018-06-12T08:54:52.709Z,65.08
2018-06-12T08:55:18.420Z,65.37
2018-06-12T08:55:43.909Z,64.95
2018-06-12T08:56:09.406Z,65.08
2018-06-12T08:56:35.919Z,65.05
2018-06-12T08:57:01.727Z,64.85
2018-06-12T08:57:27.215Z,64.95
2018-06-12T08:57:52.842Z,65.23
2018-06-12T08:58:18.518Z,64.85
2018-06-12T08:58:44.315Z,64.56
2018-06-12T08:59:09.974Z,65.14
2018-06-12T08:59:35.804Z,65.62
2018-06-12T09:00:01.340Z,65.91
2018-06-12T09:00:26.829Z,66
2018-06-12T09:00:52.351Z,66.39
2018-06-12T09:01:17.870Z,66.77
2018-06-12T09:01:43.315Z,66.87
2018-06-12T09:02:08.800Z,66.77
2018-06-12T09:02:34.351Z,66.87
2018-06-12T09:02:59.735Z,66.77
2018-06-12T09:03:25.216Z,67.29
2018-06-12T09:03:50.751Z,67
2018-06-12T09:04:16.270Z,66.52
2018-06-12T09:04:41.713Z,66.81
2018-06-12T09:05:07.160Z,66.23
2018-06-12T09:05:32.632Z,65.84
2018-06-12T09:05:58.105Z,65.66
2018-06-12T09:06:23.589Z,65.08
2018-06-12T09:06:49.091Z,64.02
2018-06-12T09:07:14.872Z,64.31
2018-06-12T09:07:40.361Z,63.92
2018-06-12T09:08:05.812Z,63.76
2018-06-12T09:08:31.305Z,64.15
2018-06-12T09:08:56.825Z,63.86
2018-06-12T09:09:22.326Z,64.25
2018-06-12T09:09:47.795Z,64.25
2018-06-12T09:10:13.292Z,63.86
2018-06-12T09:10:38.820Z,64.34
2018-06-12T09:11:04.356Z,63.79
2018-06-12T09:11:29.960Z,63.6
2018-06-12T09:11:55.453Z,63.7
2018-06-12T09:12:20.973Z,64.08
2018-06-12T09:12:46.589Z,63.79
2018-06-12T09:13:12.135Z,63.51
2018-06-12T09:13:37.608Z,63.41
2018-06-12T09:14:03.194Z,63.12
2018-06-12T09:14:28.720Z,63.22
2018-06-12T09:14:54.245Z,63.64
2018-06-12T09:15:19.783Z,63.54
2018-06-12T09:15:45.303Z,63.44
2018-06-12T09:16:10.856Z,62.96
2018-06-12T09:16:36.361Z,62.67
2018-06-12T09:17:01.854Z,62.87
2018-06-12T09:17:27.355Z,62.96
2018-06-12T09:17:52.955Z,63.44
2018-06-12T09:18:18.442Z,62.77
2018-06-12T09:18:43.906Z,62.67
2018-06-12T09:19:09.351Z,62.87
2018-06-12T09:19:34.890Z,62.96
2018-06-12T09:20:00.332Z,62.87
2018-06-12T09:20:25.848Z,62.87
2018-06-12T09:20:51.325Z,62.29
2018-06-12T09:21:16.818Z,62.09
2018-06-12T09:21:42.330Z,61.04
2018-06-12T09:22:07.906Z,60.75
2018-06-12T09:22:33.409Z,60.36
2018-06-12T09:22:58.902Z,60.75
2018-06-12T09:23:24.338Z,61.04
2018-06-12T09:23:49.904Z,60.42
2018-06-12T09:24:53.468Z,60.42
2018-06-12T09:25:18.938Z,60.42
2018-06-12T09:25:44.424Z,60.33
2018-06-12T09:26:10.030Z,60.62
2018-06-12T09:26:35.483Z,60.62
2018-06-12T09:27:00.925Z,60.14
2018-06-12T09:27:26.437Z,60.81
2018-06-12T09:27:51.908Z,60.24
2018-06-12T09:28:17.402Z,59.94
2018-06-12T09:28:42.888Z,60.62
2018-06-12T09:29:08.374Z,61
2018-06-12T09:29:33.870Z,60.81
2018-06-12T09:29:59.391Z,61.19
2018-06-12T09:30:24.988Z,61.39
2018-06-12T09:30:50.498Z,61.19
2018-06-12T09:31:15.955Z,61.58
2018-06-12T09:31:41.631Z,61.19
2018-06-12T09:32:07.109Z,61.39
2018-06-12T09:32:32.581Z,61
2018-06-12T09:32:58.071Z,61.1
2018-06-12T09:33:23.505Z,61.49
2018-06-12T09:33:49.064Z,61.58
2018-06-12T09:34:14.548Z,61.77
2018-06-12T09:34:40.099Z,61.87
2018-06-12T09:35:05.569Z,62.06
2018-06-12T09:35:31.047Z,62.45
2018-06-12T09:35:56.548Z,61.97
2018-06-12T09:36:22.043Z,62.06
2018-06-12T09:36:47.529Z,61.68
2018-06-12T09:37:13.048Z,62.35
2018-06-12T09:37:38.515Z,62.26
2018-06-12T09:38:04.020Z,62.35
2018-06-12T09:39:02.575Z,61.77
2018-06-12T09:39:28.041Z,62.06
2018-06-12T09:39:53.509Z,62.16
2018-06-12T09:40:19.019Z,61.87
2018-06-12T09:40:44.514Z,61.87
2018-06-12T09:41:09.982Z,62.26
2018-06-12T09:41:35.497Z,62.35
2018-06-12T09:42:01.024Z,62.64
2018-06-12T09:42:26.439Z,62.74
2018-06-12T09:42:51.930Z,62.45
2018-06-12T09:43:17.378Z,62.16